UAE186 LEBL-OMDB
Flight info
| Callsign | UAE186 |
|---|---|
| Flight time | N/A |
| Altitude | 32000 |
| Route | DIPES N725 OSPOK/N0491F330 DCT NOLVI DCT ORKUM DCT ELSAG DCT ALG DCT SENTI DCT SUSOM DCT BONAR M980 LOSUL M855 MMA P751 DASUM Y234 FYM/N0488F350 M872 BDB Y214 RAPMA DCT KUVSO DCT KATIT DCT PEKEM M628 RIGIL G783 ASPED Q308 KIPOK Q568 IMPED |
| Aircraft | B77W/H-SDE2E3GHIJ1J3J4J5M1P2RWXYZ/LB1D1 |
Departure
| Time | N/A |
|---|---|
| Airport | Josep Tarradellas Barcelona-El Prat Airport (LEBL) |
Arrival
| Time | 2026-05-04 19:11 |
|---|---|
| Airport | Dubai International Airport (OMDB) |
| Time | Latitude | Longitude | Altitude | Speed | Heading |
|---|---|---|---|---|---|
| 2026-05-04 18:56 | 24.31005 | 55.82981 | 34846 ft | 454 kts | 38° |
| 2026-05-04 18:56 | 24.35673 | 55.87605 | 34400 ft | 450 kts | 38° |
| 2026-05-04 18:57 | 24.37995 | 55.89890 | 33998 ft | 447 kts | 38° |
| 2026-05-04 18:57 | 24.40292 | 55.92172 | 33608 ft | 444 kts | 38° |
| 2026-05-04 18:57 | 24.42583 | 55.94461 | 32655 ft | 453 kts | 38° |
| 2026-05-04 18:57 | 24.44964 | 55.96840 | 31226 ft | 474 kts | 39° |
| 2026-05-04 18:58 | 24.47460 | 55.99336 | 29687 ft | 496 kts | 39° |
| 2026-05-04 18:58 | 24.50014 | 56.01896 | 28345 ft | 508 kts | 39° |
| 2026-05-04 18:58 | 24.52662 | 56.04554 | 27387 ft | 508 kts | 39° |
| 2026-05-04 18:58 | 24.55233 | 56.07133 | 26540 ft | 507 kts | 39° |
| 2026-05-04 18:59 | 24.57931 | 56.09598 | 25678 ft | 503 kts | 32° |
| 2026-05-04 18:59 | 24.60938 | 56.11498 | 24889 ft | 495 kts | 22° |
| 2026-05-04 18:59 | 24.64120 | 56.12854 | 24225 ft | 487 kts | 14° |
| 2026-05-04 18:59 | 24.67394 | 56.13659 | 23608 ft | 477 kts | 5° |
| 2026-05-04 19:00 | 24.70665 | 56.14140 | 22920 ft | 472 kts | 5° |
| 2026-05-04 19:00 | 24.73896 | 56.14675 | 22184 ft | 467 kts | 6° |
| 2026-05-04 19:00 | 24.77080 | 56.15034 | 21423 ft | 458 kts | 358° |
| 2026-05-04 19:00 | 24.80190 | 56.14573 | 20708 ft | 449 kts | 341° |
| 2026-05-04 19:01 | 24.82988 | 56.13156 | 20079 ft | 439 kts | 326° |
| 2026-05-04 19:01 | 24.85358 | 56.11084 | 19407 ft | 433 kts | 314° |
| 2026-05-04 19:01 | 24.87196 | 56.08479 | 18649 ft | 428 kts | 300° |
| 2026-05-04 19:01 | 24.88578 | 56.05588 | 17944 ft | 425 kts | 297° |
| 2026-05-04 19:02 | 24.89919 | 56.02694 | 17136 ft | 424 kts | 297° |
| 2026-05-04 19:02 | 24.91271 | 55.99808 | 16345 ft | 423 kts | 298° |
| 2026-05-04 19:02 | 24.92634 | 55.96947 | 15593 ft | 421 kts | 298° |
| 2026-05-04 19:02 | 24.94002 | 55.94109 | 14843 ft | 420 kts | 298° |
| 2026-05-04 19:03 | 24.94924 | 55.92209 | 14335 ft | 405 kts | 298° |
| 2026-05-04 19:03 | 24.96205 | 55.89572 | 13624 ft | 378 kts | 299° |
| 2026-05-04 19:03 | 24.97409 | 55.87097 | 12874 ft | 356 kts | 299° |
| 2026-05-04 19:03 | 24.98551 | 55.84746 | 12126 ft | 339 kts | 299° |
| 2026-05-04 19:04 | 24.99640 | 55.82503 | 11402 ft | 326 kts | 300° |
| 2026-05-04 19:04 | 25.00741 | 55.80411 | 10714 ft | 314 kts | 303° |
| 2026-05-04 19:04 | 25.01890 | 55.78387 | 10106 ft | 301 kts | 303° |
| 2026-05-04 19:04 | 25.02966 | 55.76490 | 9548 ft | 290 kts | 303° |
| 2026-05-04 19:05 | 25.04016 | 55.74635 | 8925 ft | 281 kts | 303° |
| 2026-05-04 19:05 | 25.05062 | 55.72775 | 8333 ft | 289 kts | 303° |
| 2026-05-04 19:05 | 25.06130 | 55.70869 | 7839 ft | 295 kts | 303° |
| 2026-05-04 19:05 | 25.07210 | 55.68937 | 7380 ft | 298 kts | 303° |
| 2026-05-04 19:06 | 25.08305 | 55.66974 | 6931 ft | 302 kts | 303° |
| 2026-05-04 19:06 | 25.09412 | 55.64989 | 6477 ft | 305 kts | 303° |
| 2026-05-04 19:06 | 25.10526 | 55.62991 | 6024 ft | 305 kts | 303° |
| 2026-05-04 19:06 | 25.11602 | 55.61057 | 5493 ft | 288 kts | 303° |
| 2026-05-04 19:07 | 25.12624 | 55.59219 | 5004 ft | 274 kts | 303° |
| 2026-05-04 19:07 | 25.13604 | 55.57471 | 4516 ft | 262 kts | 304° |
| 2026-05-04 19:07 | 25.14559 | 55.55801 | 4022 ft | 252 kts | 303° |
| 2026-05-04 19:07 | 25.15464 | 55.54182 | 3543 ft | 244 kts | 302° |
| 2026-05-04 19:08 | 25.16333 | 55.52612 | 3051 ft | 236 kts | 302° |
| 2026-05-04 19:08 | 25.17171 | 55.51099 | 2633 ft | 225 kts | 302° |
| 2026-05-04 19:08 | 25.17966 | 55.49662 | 2220 ft | 212 kts | 302° |
| 2026-05-04 19:08 | 25.18690 | 55.48355 | 1913 ft | 192 kts | 302° |
| 2026-05-04 19:09 | 25.19372 | 55.47123 | 1607 ft | 182 kts | 302° |
| 2026-05-04 19:09 | 25.20011 | 55.45968 | 1320 ft | 168 kts | 302° |
| 2026-05-04 19:09 | 25.20593 | 55.44916 | 1105 ft | 156 kts | 302° |
| 2026-05-04 19:09 | 25.21165 | 55.43886 | 948 ft | 158 kts | 302° |
| 2026-05-04 19:10 | 25.21740 | 55.42845 | 737 ft | 159 kts | 300° |
| 2026-05-04 19:10 | 25.22318 | 55.41800 | 546 ft | 160 kts | 300° |
| 2026-05-04 19:10 | 25.22899 | 55.40748 | 326 ft | 160 kts | 299° |
| 2026-05-04 19:10 | 25.23476 | 55.39691 | 115 ft | 161 kts | 300° |
| 2026-05-04 19:11 | 25.24045 | 55.38660 | 30 ft | 147 kts | 302° |
| 2026-05-04 19:11 | 25.24508 | 55.37832 | 28 ft | 105 kts | 301° |
| 2026-05-04 19:11 | 25.24811 | 55.37289 | 29 ft | 65 kts | 301° |
| 2026-05-04 19:11 | 25.25000 | 55.36927 | 29 ft | 28 kts | 287° |
| 2026-05-04 19:12 | 25.25021 | 55.36715 | 27 ft | 28 kts | 271° |
| 2026-05-04 19:12 | 25.25034 | 55.36470 | 26 ft | 14 kts | 281° |
| 2026-05-04 19:12 | 25.25061 | 55.36370 | 29 ft | 14 kts | 294° |
| 2026-05-04 19:13 | 25.25108 | 55.36281 | 26 ft | 14 kts | 301° |
| 2026-05-04 19:13 | 25.25158 | 55.36191 | 26 ft | 14 kts | 302° |
| 2026-05-04 19:13 | 25.25209 | 55.36103 | 26 ft | 14 kts | 302° |
| 2026-05-04 19:13 | 25.25258 | 55.36015 | 31 ft | 14 kts | 302° |
| 2026-05-04 19:14 | 25.25308 | 55.35927 | 27 ft | 14 kts | 302° |
| 2026-05-04 19:14 | 25.25358 | 55.35838 | 30 ft | 14 kts | 302° |
| 2026-05-04 19:14 | 25.25408 | 55.35750 | 29 ft | 14 kts | 302° |
| 2026-05-04 19:14 | 25.25458 | 55.35661 | 29 ft | 14 kts | 302° |
| 2026-05-04 19:15 | 25.25506 | 55.35572 | 29 ft | 14 kts | 292° |
| 2026-05-04 19:15 | 25.25463 | 55.35491 | 30 ft | 14 kts | 212° |
| 2026-05-04 19:15 | 25.25390 | 55.35441 | 30 ft | 6 kts | 211° |
| 2026-05-04 19:15 | 25.25374 | 55.35430 | 30 ft | 3 kts | 211° |
| 2026-05-04 19:16 | 25.25368 | 55.35426 | 29 ft | 0 kts | 211° |